Time;durP1;ratioP1;P1;durP2;ratioP2;P2;SDS_P1;SDS_P2;PMS_P1;PMS_P2;Temp;Humidity;BMP_temperature;BMP_pressure;BME280_temperature;BME280_humidity;BME280_pressure;Samples;Min_cycle;Max_cycle;Signal;HPM_P1;HPM_P2
2021/07/14 00:01:40;;;;;;;;;;;26.40;55.00;;;;;;5023824;28;87144;-47
2021/07/14 00:04:05;;;;;;;;;;;26.40;55.00;;;;;;5019783;28;87852;-46
2021/07/14 00:06:31;;;;;;;;;;;26.40;55.00;;;;;;5019321;28;87206;-46
2021/07/14 00:08:56;;;;;;;;;;;26.40;55.10;;;;;;5018388;28;87191;-46
2021/07/14 00:11:22;;;;;;;;;;;26.40;55.10;;;;;;5016643;28;89349;-46
2021/07/14 00:14:25;;;;;;;;;;;26.30;55.10;;;;;;5017428;28;88830;-48
2021/07/14 00:22:13;;;;;;;;;;;26.20;54.90;;;;;;5019538;28;87153;-46
2021/07/14 00:24:39;;;;;;;;;;;26.20;55.00;;;;;;5023459;28;88684;-47
2021/07/14 00:27:05;;;;;;;;;;;26.20;55.10;;;;;;5021538;28;87139;-47
2021/07/14 00:29:35;;;;;;;;;;;26.20;55.20;;;;;;5018924;28;89028;-46
2021/07/14 00:32:01;;;;;;;;;;;26.20;55.10;;;;;;5018970;28;89628;-48
2021/07/14 00:34:26;;;;;;;;;;;26.20;55.10;;;;;;5018572;28;87119;-46
2021/07/14 00:36:52;;;;;;;;;;;26.20;55.10;;;;;;5017199;28;88822;-47
2021/07/14 00:39:36;;;;;;;;;;;26.10;55.10;;;;;;5016568;28;89183;-47
2021/07/14 00:42:02;;;;;;;;;;;26.10;55.10;;;;;;5018004;28;87199;-48
2021/07/14 00:44:27;;;;;;;;;;;26.10;55.10;;;;;;5017072;28;87476;-46
2021/07/14 00:46:53;;;;;;;;;;;26.10;55.20;;;;;;5020401;28;88659;-46
2021/07/14 00:49:19;;;;;;;;;;;26.00;55.00;;;;;;5021639;28;89468;-47
2021/07/14 00:51:45;;;;;;;;;;;26.10;55.20;;;;;;5020547;28;88193;-48
2021/07/14 00:54:10;;;;;;;;;;;26.00;55.10;;;;;;5019818;28;86465;-46
2021/07/14 00:56:36;;;;;;;;;;;26.00;55.10;;;;;;5018536;28;87169;-46
2021/07/14 00:59:02;;;;;;;;;;;26.00;55.10;;;;;;5016517;28;89642;-46
2021/07/14 01:01:28;;;;;;;;;;;26.00;55.20;;;;;;5016126;28;89006;-47
2021/07/14 01:04:00;;;;;;;;;;;26.00;55.20;;;;;;5019938;28;89738;-47
2021/07/14 01:06:32;;;;;;;;;;;26.00;55.20;;;;;;5017847;28;89613;-46
2021/07/14 01:09:01;;;;;;;;;;;25.90;55.80;;;;;;5020129;28;87742;-47
2021/07/14 01:11:29;;;;;;;;;;;25.90;55.20;;;;;;5016698;28;88526;-47
2021/07/14 01:14:35;;;;;;;;;;;25.90;55.20;;;;;;5019591;28;87169;-47
2021/07/14 01:17:06;;;;;;;;;;;25.90;55.30;;;;;;4997633;28;88800;-46
2021/07/14 01:19:44;;;;;;;;;;;25.90;55.20;;;;;;5017518;28;88916;-46
2021/07/14 01:22:32;;;;;;;;;;;25.90;55.30;;;;;;5020441;28;87168;-47
2021/07/14 01:25:06;;;;;;;;;;;25.90;55.20;;;;;;4997011;28;88881;-46
2021/07/14 01:27:34;;;;;;;;;;;25.80;55.20;;;;;;5016228;28;90189;-46
2021/07/14 01:30:01;;;;;;;;;;;25.80;55.10;;;;;;5022513;28;87303;-46
2021/07/14 01:32:27;;;;;;;;;;;25.80;55.20;;;;;;5016828;28;88101;-46
2021/07/14 01:34:58;;;;;;;;;;;25.80;55.10;;;;;;5016776;28;88582;-47
2021/07/14 01:37:25;;;;;;;;;;;25.80;55.10;;;;;;5021102;28;87845;-47
2021/07/14 01:39:51;;;;;;;;;;;25.70;55.10;;;;;;5018257;28;89345;-46
2021/07/14 01:42:19;;;;;;;;;;;25.70;55.20;;;;;;5017124;28;87187;-47
2021/07/14 01:44:45;;;;;;;;;;;25.70;55.20;;;;;;5020241;28;87630;-46
2021/07/14 01:47:11;;;;;;;;;;;25.70;55.20;;;;;;5017987;28;89254;-46
2021/07/14 01:49:37;;;;;;;;;;;25.70;55.20;;;;;;5017026;28;87190;-46
2021/07/14 01:52:04;;;;;;;;;;;25.70;55.10;;;;;;5017783;28;88213;-47
2021/07/14 01:54:30;;;;;;;;;;;25.60;55.10;;;;;;5019527;28;87177;-47
2021/07/14 01:56:56;;;;;;;;;;;25.60;55.10;;;;;;5018338;28;87575;-46
2021/07/14 01:59:23;;;;;;;;;;;25.60;55.10;;;;;;5015909;28;89285;-46
2021/07/14 02:01:49;;;;;;;;;;;25.60;55.20;;;;;;5019958;28;88766;-47
2021/07/14 02:04:31;;;;;;;;;;;25.60;55.20;;;;;;5018591;28;88896;-46
2021/07/14 02:07:14;;;;;;;;;;;25.60;55.10;;;;;;5017015;28;89183;-46
2021/07/14 02:09:40;;;;;;;;;;;25.50;55.10;;;;;;5023941;28;86470;-47
2021/07/14 02:12:07;;;;;;;;;;;25.50;55.10;;;;;;5021025;28;88285;-46
2021/07/14 02:14:36;;;;;;;;;;;25.50;55.10;;;;;;5021630;28;89921;-46
2021/07/14 02:17:04;;;;;;;;;;;25.50;55.30;;;;;;5019377;28;88095;-47
2021/07/14 02:19:30;;;;;;;;;;;25.50;55.10;;;;;;5023169;28;87567;-47
2021/07/14 02:21:55;;;;;;;;;;;25.50;55.20;;;;;;5021393;28;87200;-46
2021/07/14 02:24:21;;;;;;;;;;;25.40;55.00;;;;;;5020897;28;87540;-46
2021/07/14 02:26:47;;;;;;;;;;;25.40;55.20;;;;;;5019369;28;89261;-47
2021/07/14 02:29:12;;;;;;;;;;;25.40;55.20;;;;;;5018969;28;87210;-46
2021/07/14 02:31:38;;;;;;;;;;;25.40;55.20;;;;;;5021580;28;88778;-47
2021/07/14 02:34:06;;;;;;;;;;;25.30;55.30;;;;;;5024234;28;86924;-48
2021/07/14 02:36:32;;;;;;;;;;;25.30;55.20;;;;;;5023124;28;87275;-46
2021/07/14 02:39:00;;;;;;;;;;;25.30;55.10;;;;;;5019091;28;89932;-47
2021/07/14 02:41:29;;;;;;;;;;;25.30;55.10;;;;;;5020021;28;88064;-46
2021/07/14 02:43:57;;;;;;;;;;;25.30;55.20;;;;;;5022558;28;90145;-47
2021/07/14 02:46:27;;;;;;;;;;;25.30;55.20;;;;;;5018069;28;88961;-46
2021/07/14 02:48:59;;;;;;;;;;;25.30;55.20;;;;;;5018324;28;87194;-46
2021/07/14 02:51:28;;;;;;;;;;;25.30;55.20;;;;;;5022294;28;87132;-46
2021/07/14 02:53:55;;;;;;;;;;;25.20;55.20;;;;;;5022890;28;88870;-48
2021/07/14 02:56:22;;;;;;;;;;;25.20;55.10;;;;;;5020539;28;87167;-46
2021/07/14 02:58:55;;;;;;;;;;;25.20;55.10;;;;;;5021311;28;88379;-47
2021/07/14 03:01:21;;;;;;;;;;;25.20;55.20;;;;;;5021016;28;87139;-46
2021/07/14 03:03:50;;;;;;;;;;;25.20;55.20;;;;;;5019635;28;87452;-47
2021/07/14 03:06:17;;;;;;;;;;;25.20;55.30;;;;;;5018901;28;90564;-48
2021/07/14 03:08:48;;;;;;;;;;;25.10;55.20;;;;;;5018440;28;88742;-48
2021/07/14 03:11:14;;;;;;;;;;;25.10;55.30;;;;;;5021858;28;89287;-50
2021/07/14 03:13:40;;;;;;;;;;;25.10;55.20;;;;;;5021663;28;88017;-46
2021/07/14 03:16:06;;;;;;;;;;;25.10;55.20;;;;;;5020924;28;87262;-46
2021/07/14 03:18:32;;;;;;;;;;;25.00;55.20;;;;;;5020620;28;88538;-46
2021/07/14 03:20:59;;;;;;;;;;;25.00;55.10;;;;;;5019718;28;87544;-47
2021/07/14 03:23:25;;;;;;;;;;;25.00;55.20;;;;;;5022214;28;88675;-46
2021/07/14 03:25:51;;;;;;;;;;;25.00;55.20;;;;;;5020283;28;88124;-46
2021/07/14 03:28:18;;;;;;;;;;;25.00;55.20;;;;;;5018933;28;87154;-47
2021/07/14 03:30:43;;;;;;;;;;;24.90;55.10;;;;;;5020551;28;89599;-46
2021/07/14 03:33:09;;;;;;;;;;;25.00;55.30;;;;;;5022438;28;87724;-47
2021/07/14 03:35:36;;;;;;;;;;;24.90;55.20;;;;;;5021619;28;87172;-47
2021/07/14 03:38:03;;;;;;;;;;;24.90;55.10;;;;;;5019044;28;89176;-46
2021/07/14 03:40:31;;;;;;;;;;;24.90;55.30;;;;;;5025195;28;89264;-47
2021/07/14 03:42:57;;;;;;;;;;;24.90;55.30;;;;;;5018951;28;87141;-47
2021/07/14 03:45:24;;;;;;;;;;;24.90;55.40;;;;;;5017195;28;88990;-46
2021/07/14 03:47:50;;;;;;;;;;;24.90;55.20;;;;;;5022318;28;86537;-47
2021/07/14 03:50:16;;;;;;;;;;;24.80;55.30;;;;;;5020771;28;87179;-47
2021/07/14 03:52:43;;;;;;;;;;;24.80;55.20;;;;;;5018532;28;88798;-46
2021/07/14 03:55:11;;;;;;;;;;;24.80;55.30;;;;;;5021796;28;88088;-46
2021/07/14 03:57:37;;;;;;;;;;;24.80;55.30;;;;;;5018574;28;90158;-47
2021/07/14 04:00:04;;;;;;;;;;;24.80;55.30;;;;;;5017273;28;88135;-47
2021/07/14 04:02:30;;;;;;;;;;;24.80;55.40;;;;;;5024219;28;87259;-47
2021/07/14 04:04:55;;;;;;;;;;;24.80;55.40;;;;;;5019790;28;89234;-47
2021/07/14 04:07:24;;;;;;;;;;;24.70;55.20;;;;;;5019643;28;87151;-47
2021/07/14 04:09:50;;;;;;;;;;;24.70;55.40;;;;;;5021180;28;87723;-46
2021/07/14 04:12:16;;;;;;;;;;;24.70;55.30;;;;;;5020503;28;87368;-46
2021/07/14 04:14:42;;;;;;;;;;;24.70;55.30;;;;;;5018591;28;87210;-46
2021/07/14 04:17:07;;;;;;;;;;;24.70;55.40;;;;;;5017215;28;88577;-46
2021/07/14 04:19:33;;;;;;;;;;;24.70;55.50;;;;;;5018508;28;90438;-48
2021/07/14 04:21:59;;;;;;;;;;;24.60;55.40;;;;;;5022269;28;87153;-46
2021/07/14 04:24:25;;;;;;;;;;;24.60;55.50;;;;;;5023432;28;87217;-47
2021/07/14 04:26:51;;;;;;;;;;;24.60;55.50;;;;;;5020065;28;87251;-47
2021/07/14 04:29:17;;;;;;;;;;;24.60;55.60;;;;;;5018087;28;87639;-46
2021/07/14 04:31:43;;;;;;;;;;;24.60;56.20;;;;;;5016489;28;87299;-46
2021/07/14 04:34:08;;;;;;;;;;;24.60;55.60;;;;;;5020408;28;88561;-46
2021/07/14 04:36:34;;;;;;;;;;;24.60;55.60;;;;;;5022091;28;88853;-47
2021/07/14 04:39:00;;;;;;;;;;;24.60;55.50;;;;;;5020394;28;87940;-46
2021/07/14 04:41:27;;;;;;;;;;;24.60;55.60;;;;;;5019597;28;87262;-46
2021/07/14 04:43:53;;;;;;;;;;;24.50;55.70;;;;;;5016229;28;89046;-46
2021/07/14 04:46:18;;;;;;;;;;;24.50;55.60;;;;;;5021596;28;89198;-47
2021/07/14 04:48:44;;;;;;;;;;;24.50;55.70;;;;;;5021616;28;87612;-47
2021/07/14 04:51:09;;;;;;;;;;;24.50;55.70;;;;;;5020565;28;87698;-46
2021/07/14 04:53:35;;;;;;;;;;;24.50;55.80;;;;;;5020185;28;87143;-46
2021/07/14 04:56:00;;;;;;;;;;;24.50;55.80;;;;;;5019409;28;87340;-46
2021/07/14 04:58:26;;;;;;;;;;;24.50;55.80;;;;;;5018186;28;88399;-46
2021/07/14 05:00:52;;;;;;;;;;;24.50;55.80;;;;;;5018389;28;86413;-47
2021/07/14 05:03:17;;;;;;;;;;;24.40;55.80;;;;;;5016943;28;87152;-46
2021/07/14 05:05:43;;;;;;;;;;;24.50;55.90;;;;;;5017450;28;88711;-47
2021/07/14 05:08:08;;;;;;;;;;;24.50;55.90;;;;;;5022993;28;88910;-46
2021/07/14 05:10:34;;;;;;;;;;;24.50;56.00;;;;;;5020978;28;88113;-47
2021/07/14 05:12:59;;;;;;;;;;;24.50;55.80;;;;;;5020647;28;87178;-46
2021/07/14 05:15:25;;;;;;;;;;;24.50;56.00;;;;;;5019754;28;87176;-47
2021/07/14 05:17:51;;;;;;;;;;;24.40;56.00;;;;;;5018406;28;89735;-46
2021/07/14 05:20:20;;;;;;;;;;;24.40;56.10;;;;;;5017721;28;87102;-47
2021/07/14 05:22:46;;;;;;;;;;;24.40;56.00;;;;;;5018502;28;88659;-46
2021/07/14 05:25:12;;;;;;;;;;;24.40;56.00;;;;;;5017149;28;86981;-46
2021/07/14 05:27:38;;;;;;;;;;;24.40;56.20;;;;;;5019474;28;88307;-46
2021/07/14 05:30:04;;;;;;;;;;;24.40;56.30;;;;;;5019331;28;88067;-47
2021/07/14 05:32:30;;;;;;;;;;;24.40;56.30;;;;;;5019006;28;88082;-47
2021/07/14 05:34:55;;;;;;;;;;;24.40;56.30;;;;;;5018969;28;88480;-46
2021/07/14 05:37:21;;;;;;;;;;;24.40;56.40;;;;;;5018046;28;88006;-47
2021/07/14 05:39:46;;;;;;;;;;;24.40;56.50;;;;;;5017445;28;87240;-47
2021/07/14 05:42:12;;;;;;;;;;;24.40;56.40;;;;;;5016079;28;87367;-46
2021/07/14 05:44:37;;;;;;;;;;;24.40;56.50;;;;;;5015463;28;89214;-46
2021/07/14 05:47:03;;;;;;;;;;;24.40;56.40;;;;;;5016575;28;88950;-48
2021/07/14 05:49:28;;;;;;;;;;;24.40;56.50;;;;;;5023808;28;87917;-47
2021/07/14 05:51:54;;;;;;;;;;;24.40;56.70;;;;;;5020313;28;87194;-47
2021/07/14 05:54:20;;;;;;;;;;;24.40;56.70;;;;;;5019530;28;87147;-47
2021/07/14 05:56:46;;;;;;;;;;;24.40;56.70;;;;;;5017105;28;89465;-47
2021/07/14 05:59:12;;;;;;;;;;;24.40;56.70;;;;;;5016710;28;87111;-46
2021/07/14 06:01:37;;;;;;;;;;;24.40;56.70;;;;;;5016826;28;87621;-46
2021/07/14 06:04:03;;;;;;;;;;;24.40;56.80;;;;;;5016415;28;87629;-47
2021/07/14 06:06:29;;;;;;;;;;;24.40;56.90;;;;;;5015451;28;88733;-46
2021/07/14 06:08:54;;;;;;;;;;;24.40;56.90;;;;;;5015872;28;87261;-47
2021/07/14 06:11:20;;;;;;;;;;;24.40;56.80;;;;;;5019331;28;89795;-46
2021/07/14 06:13:45;;;;;;;;;;;24.40;56.90;;;;;;5017639;28;87702;-47
2021/07/14 06:16:11;;;;;;;;;;;24.40;56.90;;;;;;5017070;28;89454;-47
2021/07/14 06:18:36;;;;;;;;;;;24.40;57.00;;;;;;5017988;28;87138;-47
2021/07/14 06:21:02;;;;;;;;;;;24.40;57.00;;;;;;5018201;28;88779;-46
2021/07/14 06:23:28;;;;;;;;;;;24.40;57.10;;;;;;5019155;28;89357;-48
2021/07/14 06:25:55;;;;;;;;;;;24.40;57.10;;;;;;5019170;28;88983;-47
2021/07/14 06:28:21;;;;;;;;;;;24.40;57.10;;;;;;5019344;28;87194;-47
2021/07/14 06:30:47;;;;;;;;;;;24.40;57.10;;;;;;5018515;28;87147;-48
2021/07/14 06:33:12;;;;;;;;;;;24.40;57.10;;;;;;5022512;28;87175;-46
2021/07/14 06:35:38;;;;;;;;;;;24.40;57.80;;;;;;5019582;28;88123;-47
2021/07/14 06:38:04;;;;;;;;;;;24.40;57.20;;;;;;5018817;28;87308;-46
2021/07/14 06:40:30;;;;;;;;;;;24.40;57.30;;;;;;5018107;28;88415;-46
2021/07/14 06:42:56;;;;;;;;;;;24.40;57.30;;;;;;5019865;28;88269;-46
2021/07/14 06:45:23;;;;;;;;;;;24.40;57.40;;;;;;5017107;28;91498;-46
2021/07/14 06:47:49;;;;;;;;;;;24.40;57.30;;;;;;5019414;28;89568;-46
2021/07/14 06:50:15;;;;;;;;;;;24.40;57.30;;;;;;5018085;28;89211;-46
2021/07/14 06:52:41;;;;;;;;;;;24.50;57.40;;;;;;5017570;28;87173;-47
2021/07/14 06:55:07;;;;;;;;;;;24.50;57.50;;;;;;5023712;28;87532;-46
2021/07/14 06:57:33;;;;;;;;;;;24.50;57.40;;;;;;5020454;28;87224;-46
2021/07/14 06:59:59;;;;;;;;;;;24.50;57.60;;;;;;5020105;28;87217;-47
2021/07/14 07:02:24;;;;;;;;;;;24.50;57.50;;;;;;5021517;28;86471;-47
2021/07/14 07:04:50;;;;;;;;;;;24.50;57.40;;;;;;5021890;28;87178;-46
2021/07/14 07:07:15;;;;;;;;;;;24.50;57.50;;;;;;5022166;28;88935;-48
2021/07/14 07:09:41;;;;;;;;;;;24.50;57.50;;;;;;5020942;28;90175;-46
2021/07/14 07:12:07;;;;;;;;;;;24.50;58.20;;;;;;5023131;28;87296;-47
2021/07/14 07:14:33;;;;;;;;;;;24.50;57.50;;;;;;5022297;28;89023;-46
2021/07/14 07:16:58;;;;;;;;;;;24.50;57.60;;;;;;5021580;28;88579;-46
2021/07/14 07:19:24;;;;;;;;;;;24.50;57.60;;;;;;5018999;28;87556;-46
2021/07/14 07:21:50;;;;;;;;;;;24.50;57.60;;;;;;5018092;28;87600;-46
2021/07/14 07:24:16;;;;;;;;;;;24.50;57.60;;;;;;5022659;28;87167;-46
2021/07/14 07:26:44;;;;;;;;;;;24.50;57.60;;;;;;5021991;28;87368;-47
2021/07/14 07:29:10;;;;;;;;;;;24.50;57.70;;;;;;5018335;28;89465;-51
2021/07/14 07:31:36;;;;;;;;;;;24.60;57.80;;;;;;5022611;28;87157;-47
2021/07/14 07:34:02;;;;;;;;;;;24.50;57.70;;;;;;5022025;28;88853;-46
2021/07/14 07:36:27;;;;;;;;;;;24.50;57.70;;;;;;5022652;28;89045;-46
2021/07/14 07:38:53;;;;;;;;;;;24.50;57.70;;;;;;5018372;28;87201;-46
2021/07/14 07:41:19;;;;;;;;;;;24.60;57.70;;;;;;5017785;28;87885;-46
2021/07/14 07:43:45;;;;;;;;;;;24.50;57.60;;;;;;5019201;28;87188;-47
2021/07/14 07:46:11;;;;;;;;;;;24.60;57.70;;;;;;5019103;28;87183;-47
2021/07/14 07:48:37;;;;;;;;;;;24.60;57.70;;;;;;5019551;28;88043;-46
2021/07/14 07:51:03;;;;;;;;;;;24.60;57.80;;;;;;5021901;28;86446;-47
2021/07/14 07:53:29;;;;;;;;;;;24.60;57.90;;;;;;5020716;28;87993;-46
2021/07/14 07:55:54;;;;;;;;;;;24.60;57.80;;;;;;5018696;28;89494;-47
2021/07/14 07:58:20;;;;;;;;;;;24.60;57.80;;;;;;5023591;28;88072;-46
2021/07/14 08:00:46;;;;;;;;;;;24.60;57.60;;;;;;5018746;28;87613;-46
2021/07/14 08:03:11;;;;;;;;;;;24.60;57.80;;;;;;5019997;28;87210;-46
2021/07/14 08:05:37;;;;;;;;;;;24.60;57.70;;;;;;5018664;28;87167;-47
2021/07/14 08:08:03;;;;;;;;;;;24.60;57.70;;;;;;5021253;28;87209;-46
2021/07/14 08:10:28;;;;;;;;;;;24.60;57.70;;;;;;5018805;28;87156;-47
2021/07/14 08:12:54;;;;;;;;;;;24.60;57.70;;;;;;5018513;28;88331;-46
2021/07/14 08:15:20;;;;;;;;;;;24.60;57.80;;;;;;5018970;28;88487;-46
2021/07/14 08:17:45;;;;;;;;;;;24.60;57.70;;;;;;5017910;28;87151;-47
2021/07/14 08:20:11;;;;;;;;;;;24.60;57.70;;;;;;5021693;28;88315;-46
2021/07/14 08:22:37;;;;;;;;;;;24.60;57.80;;;;;;5018935;28;88150;-47
2021/07/14 08:25:05;;;;;;;;;;;24.70;57.80;;;;;;5019438;28;88427;-46
2021/07/14 08:27:30;;;;;;;;;;;24.70;57.70;;;;;;5017056;28;88193;-46
2021/07/14 08:29:59;;;;;;;;;;;24.70;57.60;;;;;;5018471;28;87122;-46
2021/07/14 08:32:25;;;;;;;;;;;24.70;57.70;;;;;;5021817;28;89347;-46
2021/07/14 08:34:51;;;;;;;;;;;24.70;57.70;;;;;;5021109;28;89029;-46
2021/07/14 08:37:16;;;;;;;;;;;24.70;57.70;;;;;;5018155;28;88470;-47
2021/07/14 08:39:42;;;;;;;;;;;24.70;57.80;;;;;;5017898;28;87619;-47
2021/07/14 08:42:08;;;;;;;;;;;24.70;57.70;;;;;;5020096;28;89412;-48
2021/07/14 08:44:34;;;;;;;;;;;24.80;57.80;;;;;;5017947;28;88859;-47
2021/07/14 08:47:00;;;;;;;;;;;24.80;57.90;;;;;;5017156;28;90471;-47
2021/07/14 08:49:26;;;;;;;;;;;24.80;57.90;;;;;;5019084;28;87121;-46
2021/07/14 08:51:52;;;;;;;;;;;24.80;57.90;;;;;;5019793;28;87125;-48
2021/07/14 08:54:18;;;;;;;;;;;24.80;58.00;;;;;;5020006;28;89435;-47
2021/07/14 08:56:43;;;;;;;;;;;24.80;57.90;;;;;;5020299;28;87109;-47
2021/07/14 08:59:09;;;;;;;;;;;24.90;58.00;;;;;;5021359;28;87462;-48
2021/07/14 09:01:34;;;;;;;;;;;24.80;57.80;;;;;;5019253;28;88278;-47
2021/07/14 09:04:03;;;;;;;;;;;24.90;58.00;;;;;;5020072;28;86405;-47
2021/07/14 09:06:29;;;;;;;;;;;24.90;57.40;;;;;;5020591;28;88200;-50
2021/07/14 09:08:54;;;;;;;;;;;24.90;57.70;;;;;;5021277;28;87269;-48
2021/07/14 09:11:20;;;;;;;;;;;24.90;58.10;;;;;;5018118;28;89049;-46
2021/07/14 09:13:47;;;;;;;;;;;24.90;58.10;;;;;;5016584;28;88787;-46
2021/07/14 09:16:31;;;;;;;;;;;24.90;58.30;;;;;;5016689;28;87145;-47
2021/07/14 09:19:11;;;;;;;;;;;24.90;58.20;;;;;;5019578;28;87812;-46
2021/07/14 09:21:41;;;;;;;;;;;24.90;58.20;;;;;;5018097;28;88162;-46
2021/07/14 09:24:21;;;;;;;;;;;25.00;58.30;;;;;;5019982;28;87091;-46
2021/07/14 09:26:47;;;;;;;;;;;25.00;58.00;;;;;;5023476;28;88557;-46
2021/07/14 09:29:12;;;;;;;;;;;25.00;58.20;;;;;;5018129;28;87285;-47
2021/07/14 09:31:42;;;;;;;;;;;25.00;58.00;;;;;;5016678;28;88363;-47
2021/07/14 09:34:20;;;;;;;;;;;25.10;58.10;;;;;;5017317;28;88120;-47
2021/07/14 09:36:46;;;;;;;;;;;25.10;58.20;;;;;;5015544;28;88188;-48
2021/07/14 09:39:11;;;;;;;;;;;25.10;58.20;;;;;;5016898;28;88341;-49
2021/07/14 09:41:37;;;;;;;;;;;25.10;58.20;;;;;;5017811;28;87687;-48
2021/07/14 09:44:03;;;;;;;;;;;25.10;58.30;;;;;;5019483;28;87156;-46
2021/07/14 09:46:30;;;;;;;;;;;25.10;58.20;;;;;;5022866;28;87153;-47
2021/07/14 09:48:55;;;;;;;;;;;25.10;58.40;;;;;;5019386;28;87146;-48
2021/07/14 09:51:22;;;;;;;;;;;25.10;58.20;;;;;;5020907;28;87584;-47
2021/07/14 09:53:48;;;;;;;;;;;25.20;58.40;;;;;;5020663;28;87697;-48
2021/07/14 09:56:22;;;;;;;;;;;25.20;58.40;;;;;;5020370;28;87135;-47
2021/07/14 09:59:00;;;;;;;;;;;25.20;58.40;;;;;;5017470;28;89121;-46
2021/07/14 10:01:33;;;;;;;;;;;25.20;58.50;;;;;;5015592;28;88730;-46
2021/07/14 10:03:59;;;;;;;;;;;25.20;58.70;;;;;;5020151;28;88630;-46
2021/07/14 10:06:25;;;;;;;;;;;25.30;58.80;;;;;;5019745;28;88812;-47
2021/07/14 10:08:51;;;;;;;;;;;25.30;58.40;;;;;;5021288;28;88204;-46
2021/07/14 10:11:19;;;;;;;;;;;25.30;58.40;;;;;;5015951;28;88399;-46
2021/07/14 10:13:56;;;;;;;;;;;25.40;58.40;;;;;;5017556;28;89685;-47
2021/07/14 10:16:22;;;;;;;;;;;25.40;58.40;;;;;;5018498;28;87207;-47
2021/07/14 10:18:54;;;;;;;;;;;25.40;58.40;;;;;;5019008;28;88806;-46
2021/07/14 10:21:19;;;;;;;;;;;25.40;59.20;;;;;;5016338;28;88288;-47
2021/07/14 10:23:45;;;;;;;;;;;25.50;58.60;;;;;;5016657;28;87159;-46
2021/07/14 10:26:10;;;;;;;;;;;25.50;58.50;;;;;;5015851;28;88234;-47
2021/07/14 10:28:36;;;;;;;;;;;25.50;58.60;;;;;;5020075;28;89819;-47
2021/07/14 10:31:02;;;;;;;;;;;25.50;58.40;;;;;;5026690;28;87245;-47
2021/07/14 10:33:27;;;;;;;;;;;25.60;58.40;;;;;;5021158;28;88537;-46
2021/07/14 10:35:54;;;;;;;;;;;25.50;58.30;;;;;;5018856;28;88895;-46
2021/07/14 10:38:21;;;;;;;;;;;25.50;58.40;;;;;;5020532;28;88975;-46
2021/07/14 10:40:48;;;;;;;;;;;25.50;58.40;;;;;;5021749;28;88183;-47
2021/07/14 10:43:15;;;;;;;;;;;25.60;58.50;;;;;;5024062;28;86453;-47
2021/07/14 10:45:41;;;;;;;;;;;25.60;58.20;;;;;;5022980;28;87485;-48
2021/07/14 10:48:07;;;;;;;;;;;25.60;58.60;;;;;;5022779;28;88401;-46
2021/07/14 10:50:33;;;;;;;;;;;25.60;58.40;;;;;;5022263;28;89436;-47
2021/07/14 10:52:58;;;;;;;;;;;25.60;58.60;;;;;;5022405;28;88574;-47
2021/07/14 10:55:25;;;;;;;;;;;25.70;58.60;;;;;;5019249;28;87162;-47
2021/07/14 10:57:51;;;;;;;;;;;25.70;58.50;;;;;;5018799;28;87562;-46
2021/07/14 11:00:17;;;;;;;;;;;25.70;58.90;;;;;;5019156;28;89180;-46
2021/07/14 11:02:44;;;;;;;;;;;25.70;58.40;;;;;;5019628;28;87250;-48
2021/07/14 11:05:11;;;;;;;;;;;25.80;58.40;;;;;;5021674;28;88626;-47
2021/07/14 11:07:38;;;;;;;;;;;25.80;58.30;;;;;;5020953;28;88716;-46
2021/07/14 11:10:22;;;;;;;;;;;25.80;58.40;;;;;;5018775;28;87180;-46
2021/07/14 11:12:47;;;;;;;;;;;25.80;58.50;;;;;;5021934;28;88805;-46
2021/07/14 11:15:26;;;;;;;;;;;25.80;58.50;;;;;;5024867;28;88666;-46
2021/07/14 11:17:51;;;;;;;;;;;25.80;58.20;;;;;;5019527;28;87476;-46
2021/07/14 11:20:17;;;;;;;;;;;25.90;58.20;;;;;;5019166;28;89509;-47
2021/07/14 11:22:48;;;;;;;;;;;25.90;58.40;;;;;;5020544;28;87127;-47
2021/07/14 11:25:20;;;;;;;;;;;25.90;58.30;;;;;;5018992;28;88721;-47
2021/07/14 11:27:47;;;;;;;;;;;26.00;58.30;;;;;;5018526;28;87979;-46
2021/07/14 11:30:12;;;;;;;;;;;26.00;58.40;;;;;;5018283;28;88909;-48
2021/07/14 11:32:41;;;;;;;;;;;26.00;58.40;;;;;;5019838;28;86417;-48
2021/07/14 11:35:06;;;;;;;;;;;26.00;58.40;;;;;;5021702;28;87857;-46
2021/07/14 11:37:39;;;;;;;;;;;26.10;58.30;;;;;;5021729;28;87092;-46
2021/07/14 11:40:17;;;;;;;;;;;26.10;58.00;;;;;;5020107;28;90809;-48
2021/07/14 11:42:50;;;;;;;;;;;26.10;58.00;;;;;;5019832;28;87147;-46
2021/07/14 11:45:16;;;;;;;;;;;26.10;58.00;;;;;;5019579;28;88149;-49
2021/07/14 11:47:41;;;;;;;;;;;26.20;57.80;;;;;;5021550;28;87111;-47
2021/07/14 11:50:07;;;;;;;;;;;26.20;58.00;;;;;;5021419;28;87136;-46
2021/07/14 11:52:43;;;;;;;;;;;26.20;57.70;;;;;;5021391;28;89349;-48
2021/07/14 11:55:24;;;;;;;;;;;26.20;57.70;;;;;;5021468;28;88760;-48
2021/07/14 11:57:55;;;;;;;;;;;26.20;57.70;;;;;;5022413;28;87905;-47
2021/07/14 12:00:31;;;;;;;;;;;26.20;57.70;;;;;;5018000;28;88776;-47
2021/07/14 12:03:00;;;;;;;;;;;26.30;57.90;;;;;;5018787;28;87142;-46
2021/07/14 12:05:29;;;;;;;;;;;26.30;57.90;;;;;;5021200;28;88850;-48
2021/07/14 12:08:07;;;;;;;;;;;26.30;58.00;;;;;;5017581;28;87788;-47
2021/07/14 12:10:32;;;;;;;;;;;26.30;57.90;;;;;;5020542;28;88093;-47
2021/07/14 12:12:58;;;;;;;;;;;26.40;58.10;;;;;;5017539;28;87668;-47
2021/07/14 12:15:24;;;;;;;;;;;26.40;57.80;;;;;;5016864;28;88783;-47
2021/07/14 12:17:49;;;;;;;;;;;26.40;57.60;;;;;;5018513;28;88696;-47
2021/07/14 12:20:15;;;;;;;;;;;26.40;57.20;;;;;;5020251;28;88747;-46
2021/07/14 12:22:41;;;;;;;;;;;26.50;57.10;;;;;;5018622;28;87868;-47
2021/07/14 12:25:14;;;;;;;;;;;26.50;57.30;;;;;;5018002;28;87144;-48
2021/07/14 12:27:41;;;;;;;;;;;26.50;57.10;;;;;;5019972;28;89037;-48
2021/07/14 12:30:23;;;;;;;;;;;26.50;57.30;;;;;;5020052;28;88129;-47
2021/07/14 12:32:51;;;;;;;;;;;26.60;56.70;;;;;;5018133;28;89604;-46
2021/07/14 12:35:22;;;;;;;;;;;26.60;56.30;;;;;;5020153;28;89357;-46
2021/07/14 12:37:50;;;;;;;;;;;26.60;56.60;;;;;;5020796;28;87199;-47
2021/07/14 12:40:24;;;;;;;;;;;26.60;56.60;;;;;;5018743;28;88046;-46
2021/07/14 12:42:50;;;;;;;;;;;26.60;56.50;;;;;;5020755;28;89184;-47
2021/07/14 12:45:26;;;;;;;;;;;26.60;56.60;;;;;;5016902;28;89800;-47
2021/07/14 12:47:52;;;;;;;;;;;26.70;56.80;;;;;;5017401;28;88842;-46
2021/07/14 12:50:24;;;;;;;;;;;26.70;56.70;;;;;;5018209;28;87178;-47
2021/07/14 12:52:53;;;;;;;;;;;26.70;57.40;;;;;;5016932;28;88627;-46
2021/07/14 12:55:20;;;;;;;;;;;26.70;56.90;;;;;;5018429;28;91015;-47
2021/07/14 12:57:46;;;;;;;;;;;26.80;56.10;;;;;;5018849;28;87194;-47
2021/07/14 13:00:12;;;;;;;;;;;26.80;56.00;;;;;;5019750;28;87196;-46
2021/07/14 13:02:43;;;;;;;;;;;26.80;56.40;;;;;;5020128;28;88391;-47
2021/07/14 13:05:29;;;;;;;;;;;26.90;56.20;;;;;;5023869;28;88821;-47
2021/07/14 13:07:57;;;;;;;;;;;26.90;56.60;;;;;;5021102;28;88617;-47
2021/07/14 13:10:24;;;;;;;;;;;26.90;55.90;;;;;;5019516;28;87126;-47
2021/07/14 13:12:54;;;;;;;;;;;26.90;55.70;;;;;;5019866;28;87550;-47
2021/07/14 13:15:24;;;;;;;;;;;26.90;55.60;;;;;;5019882;28;88501;-47
2021/07/14 13:18:19;;;;;;;;;;;27.00;55.50;;;;;;5017772;28;87981;-47
2021/07/14 13:20:49;;;;;;;;;;;27.00;55.50;;;;;;5008592;28;88207;-47
2021/07/14 13:23:20;;;;;;;;;;;27.00;55.50;;;;;;5020282;28;92120;-48
2021/07/14 13:25:50;;;;;;;;;;;27.10;55.20;;;;;;5021057;28;87114;-48
2021/07/14 13:28:16;;;;;;;;;;;27.20;54.80;;;;;;5023401;28;88984;-47
2021/07/14 13:30:54;;;;;;;;;;;27.20;54.60;;;;;;5017263;28;87904;-47
2021/07/14 13:33:28;;;;;;;;;;;27.20;54.50;;;;;;5020692;28;88651;-48
2021/07/14 13:35:54;;;;;;;;;;;27.20;54.80;;;;;;5016149;28;87922;-47
2021/07/14 13:38:35;;;;;;;;;;;27.20;54.40;;;;;;5016613;28;86423;-46
2021/07/14 13:41:12;;;;;;;;;;;27.20;54.30;;;;;;5016250;28;88500;-46
2021/07/14 13:43:38;;;;;;;;;;;27.30;54.10;;;;;;5020501;28;88001;-47
2021/07/14 13:46:03;;;;;;;;;;;27.30;53.90;;;;;;5018647;28;88922;-48
2021/07/14 13:48:29;;;;;;;;;;;27.30;54.00;;;;;;5019062;28;88753;-47
2021/07/14 13:50:54;;;;;;;;;;;27.40;53.50;;;;;;5016249;28;87148;-46
2021/07/14 13:53:27;;;;;;;;;;;27.40;53.50;;;;;;5016728;28;88515;-47
2021/07/14 13:56:03;;;;;;;;;;;27.40;53.10;;;;;;5016301;28;90040;-47
2021/07/14 13:58:28;;;;;;;;;;;27.50;52.20;;;;;;5016578;28;87158;-47
2021/07/14 14:00:58;;;;;;;;;;;27.50;53.00;;;;;;5016881;28;88046;-46
2021/07/14 14:03:23;;;;;;;;;;;27.50;52.30;;;;;;5017360;28;86496;-47
2021/07/14 14:06:02;;;;;;;;;;;27.60;53.00;;;;;;5018873;28;87310;-47
2021/07/14 14:08:27;;;;;;;;;;;27.60;53.20;;;;;;5016395;28;88678;-48
2021/07/14 14:10:54;;;;;;;;;;;27.60;52.90;;;;;;5019577;28;89643;-47
2021/07/14 14:13:32;;;;;;;;;;;27.70;52.60;;;;;;5016659;28;89881;-46
2021/07/14 14:15:58;;;;;;;;;;;27.70;52.10;;;;;;5017801;28;89318;-47
2021/07/14 14:18:23;;;;;;;;;;;27.80;51.70;;;;;;5015603;28;87192;-47
2021/07/14 14:20:49;;;;;;;;;;;27.80;51.50;;;;;;5016335;28;87879;-46
2021/07/14 14:23:15;;;;;;;;;;;27.90;51.80;;;;;;5016552;28;88283;-46
2021/07/14 14:25:52;;;;;;;;;;;27.90;51.80;;;;;;5017235;28;87160;-47